Time;durP1;ratioP1;P1;durP2;ratioP2;P2;SDS_P1;SDS_P2;PMS_P1;PMS_P2;Temp;Humidity;BMP_temperature;BMP_pressure;BME280_temperature;BME280_humidity;BME280_pressure;Samples;Min_cycle;Max_cycle;Signal;HPM_P1;HPM_P2
2023/10/06 00:01:04;;;;;;;4.73;2.80;;;15.10;99.90;;;;;;4912067;29;20490;-86
2023/10/06 00:04:37;;;;;;;4.17;2.90;;;15.10;99.90;;;;;;4913063;29;20469;-85
2023/10/06 00:07:50;;;;;;;4.03;2.80;;;14.90;99.90;;;;;;4969250;28;20486;-86
2023/10/06 00:17:54;;;;;;;4.00;2.50;;;14.90;99.90;;;;;;4965539;28;20483;-85
2023/10/06 00:21:14;;;;;;;4.70;2.80;;;14.80;99.90;;;;;;4965804;28;20544;-88
2023/10/06 00:23:59;;;;;;;4.07;2.70;;;15.00;99.90;;;;;;4994303;28;20475;-86
2023/10/06 00:27:11;;;;;;;5.83;2.90;;;14.90;99.90;;;;;;4976074;28;20470;-85
2023/10/06 00:30:25;;;;;;;5.57;3.40;;;14.80;99.90;;;;;;4989565;28;20435;-85
2023/10/06 00:33:10;;;;;;;4.70;2.70;;;14.70;99.90;;;;;;4973897;28;20440;-86
2023/10/06 00:39:48;;;;;;;7.47;3.20;;;14.70;99.90;;;;;;4988415;28;20495;-85
2023/10/06 00:43:21;;;;;;;6.13;3.30;;;14.90;99.90;;;;;;4994141;28;20486;-85
2023/10/06 00:46:26;;;;;;;4.83;3.73;;;15.00;99.90;;;;;;4978527;28;20554;-85
2023/10/06 00:49:17;;;;;;;;;;;;;;;;;;;;;
2023/10/06 00:52:06;;;;;;;7.00;3.30;;;14.90;99.90;;;;;;4979058;28;20486;-85
2023/10/06 00:55:02;;;;;;;6.53;3.13;;;15.00;99.90;;;;;;4969550;28;20989;-86
2023/10/06 00:57:58;;;;;;;3.70;2.77;;;14.90;99.90;;;;;;4980263;28;20472;-86
2023/10/06 01:01:08;;;;;;;;;;;;;;;;;;;;;
2023/10/06 01:04:16;;;;;;;4.13;3.70;;;14.80;99.90;;;;;;4978105;28;20472;-87
2023/10/06 01:07:11;;;;;;;6.37;3.40;;;14.70;99.90;;;;;;4961800;28;20513;-86
2023/10/06 01:10:34;;;;;;;4.83;2.93;;;14.60;99.90;;;;;;4966314;28;20534;-84
2023/10/06 01:13:22;;;;;;;;;;;;;;;;;;;;;
2023/10/06 01:16:11;;;;;;;5.70;2.80;;;14.50;99.90;;;;;;4979009;28;20467;-87
2023/10/06 01:19:26;;;;;;;5.40;3.57;;;14.50;99.90;;;;;;4974307;28;20498;-85
2023/10/06 01:22:30;;;;;;;3.97;3.13;;;14.60;99.90;;;;;;4960198;28;20462;-84
2023/10/06 01:31:55;;;;;;;4.77;3.37;;;14.70;99.90;;;;;;4975206;28;20557;-86
2023/10/06 01:34:50;;;;;;;;;;;;;;;;;;;;;
2023/10/06 01:38:00;;;;;;;8.00;2.97;;;14.30;99.90;;;;;;4975799;28;20472;-85
2023/10/06 01:41:08;;;;;;;4.47;2.67;;;14.50;99.90;;;;;;4975022;28;20902;-85
2023/10/06 01:44:12;;;;;;;5.70;3.03;;;14.60;99.90;;;;;;4974761;28;20959;-86
2023/10/06 01:47:35;;;;;;;;;;;;;;;;;;;;;
2023/10/06 01:54:13;;;;;;;4.13;2.83;;;14.30;99.90;;;;;;4937365;28;20543;-84
2023/10/06 01:56:57;;;;;;;3.37;2.80;;;14.20;99.90;;;;;;4956142;28;20490;-83
2023/10/06 02:00:31;;;;;;;5.27;2.70;;;14.10;99.90;;;;;;4959049;28;20547;-87
2023/10/06 02:03:23;;;;;;;4.57;3.33;;;14.10;99.90;;;;;;4966197;28;20497;-85
2023/10/06 02:06:20;;;;;;;4.27;2.83;;;14.30;99.90;;;;;;4980648;28;20460;-85
2023/10/06 02:09:44;;;;;;;3.40;2.07;;;14.30;99.90;;;;;;4974535;28;21667;-87
2023/10/06 02:12:41;;;;;;;4.20;3.13;;;14.30;99.90;;;;;;4955005;28;20486;-85
2023/10/06 02:15:44;;;;;;;6.60;2.70;;;14.40;99.90;;;;;;4953674;28;21021;-87
2023/10/06 02:18:23;;;;;;;4.27;2.90;;;14.30;99.90;;;;;;4978084;28;20495;-86
2023/10/06 02:21:14;;;;;;;4.00;2.77;;;14.40;99.90;;;;;;4970177;28;20494;-87
2023/10/06 02:24:10;;;;;;;;;;;;;;;;;;;;;
2023/10/06 02:27:25;;;;;;;3.77;3.03;;;14.50;99.90;;;;;;4978933;28;20450;-85
2023/10/06 02:33:01;;;;;;;5.10;3.30;;;14.30;99.90;;;;;;4955899;28;20472;-85
2023/10/06 02:35:46;;;;;;;6.17;3.13;;;14.50;99.90;;;;;;4960881;28;20586;-84
2023/10/06 02:38:46;;;;;;;4.23;2.73;;;14.10;99.90;;;;;;4957476;28;20487;-84
2023/10/06 02:41:27;;;;;;;4.47;3.20;;;14.20;99.90;;;;;;4963633;28;21065;-85
2023/10/06 02:47:17;;;;;;;3.10;2.80;;;14.10;99.90;;;;;;4889705;29;20883;-85
2023/10/06 02:49:59;;;;;;;5.63;3.40;;;13.90;99.90;;;;;;4922683;28;20985;-85
2023/10/06 02:53:13;;;;;;;5.97;4.10;;;13.80;99.90;;;;;;4957129;28;20436;-83
2023/10/06 02:56:09;;;;;;;3.50;3.17;;;13.70;99.90;;;;;;4985759;28;20555;-85
2023/10/06 02:59:06;;;;;;;4.53;3.20;;;13.60;99.90;;;;;;4983897;28;20492;-85
2023/10/06 03:02:06;;;;;;;7.80;3.43;;;13.30;99.90;;;;;;4981680;28;20495;-83
2023/10/06 03:05:32;;;;;;;4.03;3.50;;;13.60;99.90;;;;;;4975799;28;20887;-85
2023/10/06 03:08:27;;;;;;;3.83;3.40;;;13.60;99.90;;;;;;4987687;28;20546;-85
2023/10/06 03:11:22;;;;;;;7.47;3.30;;;13.70;99.90;;;;;;4983872;28;20459;-85
2023/10/06 03:14:06;;;;;;;10.00;3.23;;;13.60;99.90;;;;;;4967048;28;20507;-86
2023/10/06 03:16:51;;;;;;;3.60;3.30;;;13.70;99.90;;;;;;4976547;28;20553;-85
2023/10/06 03:19:25;;;;;;;3.10;2.70;;;13.80;99.90;;;;;;4957646;28;20515;-84
2023/10/06 03:22:13;;;;;;;5.00;3.20;;;13.70;99.90;;;;;;4958396;28;20475;-86
2023/10/06 03:25:35;;;;;;;6.37;3.30;;;13.70;99.90;;;;;;4968667;28;20462;-84
2023/10/06 03:28:20;;;;;;;4.40;3.33;;;13.70;99.90;;;;;;4983535;28;20555;-86
2023/10/06 03:31:03;;;;;;;6.33;3.33;;;13.60;99.90;;;;;;4983690;28;20510;-83
2023/10/06 03:34:13;;;;;;;4.13;3.50;;;13.50;99.90;;;;;;4966449;28;20436;-86
2023/10/06 03:37:17;;;;;;;4.60;3.10;;;13.60;99.90;;;;;;4967140;28;20610;-86
2023/10/06 03:40:35;;;;;;;4.10;3.50;;;13.60;99.90;;;;;;4956142;28;20522;-85
2023/10/06 03:47:15;;;;;;;5.63;3.20;;;13.90;99.90;;;;;;4913037;29;20505;-83
2023/10/06 03:50:04;;;;;;;4.33;3.00;;;13.80;99.90;;;;;;4875759;29;20455;-87
2023/10/06 03:53:14;;;;;;;6.63;3.53;;;13.90;99.90;;;;;;4967798;28;20472;-82
2023/10/06 03:56:30;;;;;;;4.93;3.57;;;13.60;99.90;;;;;;4982290;28;20467;-86
2023/10/06 03:59:21;;;;;;;3.70;2.40;;;13.50;99.90;;;;;;4960595;28;20525;-84
2023/10/06 04:02:10;;;;;;;4.67;2.67;;;13.50;99.90;;;;;;4975754;28;20448;-83
2023/10/06 04:04:53;;;;;;;2.90;2.33;;;13.40;99.90;;;;;;4978959;28;20446;-83
2023/10/06 04:07:53;;;;;;;5.07;2.90;;;13.50;99.90;;;;;;4966164;28;21108;-85
2023/10/06 04:13:56;;;;;;;4.57;3.30;;;13.40;99.90;;;;;;4967420;28;20663;-86
2023/10/06 04:16:55;;;;;;;5.40;3.50;;;13.50;99.90;;;;;;4967316;28;20461;-85
2023/10/06 04:19:46;;;;;;;6.77;3.20;;;13.30;99.90;;;;;;4969813;28;20479;-86
2023/10/06 04:22:40;;;;;;;3.23;2.90;;;13.30;99.90;;;;;;4956214;28;20475;-85
2023/10/06 04:25:28;;;;;;;4.50;3.10;;;13.50;99.90;;;;;;4966126;28;20440;-86
2023/10/06 04:28:29;;;;;;;6.57;2.90;;;13.60;99.90;;;;;;4972781;28;20502;-86
2023/10/06 04:31:22;;;;;;;6.27;3.60;;;13.60;99.90;;;;;;4978429;28;20466;-86
2023/10/06 04:34:03;;;;;;;5.20;3.10;;;13.70;99.90;;;;;;4969598;28;20479;-83
2023/10/06 04:36:48;;;;;;;3.80;2.60;;;13.70;99.90;;;;;;4966781;28;20452;-84
2023/10/06 04:39:55;;;;;;;4.50;3.37;;;13.60;99.90;;;;;;4974592;28;21092;-85
2023/10/06 04:42:30;;;;;;;7.80;3.23;;;13.50;99.90;;;;;;4973092;28;20491;-84
2023/10/06 04:45:06;;;;;;;5.70;3.23;;;13.20;99.90;;;;;;4995527;28;20616;-85
2023/10/06 04:47:45;;;;;;;5.60;3.20;;;13.30;99.90;;;;;;4982623;28;20479;-85
2023/10/06 04:50:20;;;;;;;4.40;3.37;;;13.20;99.90;;;;;;4982782;28;20454;-85
2023/10/06 04:53:43;;;;;;;4.50;2.80;;;13.50;99.90;;;;;;4992402;28;20455;-86
2023/10/06 04:56:40;;;;;;;5.43;3.53;;;13.50;99.90;;;;;;4974470;28;20482;-83
2023/10/06 04:59:45;;;;;;;5.13;2.70;;;13.50;99.90;;;;;;4953865;28;21057;-86
2023/10/06 05:02:26;;;;;;;5.70;3.17;;;13.40;99.90;;;;;;4982195;28;20462;-84
2023/10/06 05:05:03;;;;;;;6.77;3.80;;;13.40;99.90;;;;;;4967096;28;20447;-83
2023/10/06 05:07:41;;;;;;;4.80;3.13;;;13.30;99.90;;;;;;4967376;28;21147;-84
2023/10/06 05:13:55;;;;;;;6.17;3.50;;;13.10;99.90;;;;;;4979408;28;20602;-86
2023/10/06 05:16:35;;;;;;;6.73;3.30;;;12.90;99.90;;;;;;4974328;28;20447;-86
2023/10/06 05:19:34;;;;;;;;;;;;;;;;;;;;;
2023/10/06 05:22:23;;;;;;;5.70;3.40;;;13.00;99.90;;;;;;4987764;28;20885;-86
2023/10/06 05:25:01;;;;;;;5.03;3.73;;;13.10;99.90;;;;;;4967989;28;20644;-86
2023/10/06 05:28:03;;;;;;;6.23;3.83;;;13.00;99.90;;;;;;4967584;28;20468;-85
2023/10/06 05:31:07;;;;;;;3.30;3.00;;;13.10;99.90;;;;;;4963682;28;20444;-84
2023/10/06 05:34:17;;;;;;;6.93;3.80;;;13.10;99.90;;;;;;4939692;28;20468;-86
2023/10/06 05:37:15;;;;;;;3.53;3.23;;;13.10;99.90;;;;;;4971275;28;20543;-85
2023/10/06 05:40:36;;;;;;;3.30;3.00;;;13.10;99.90;;;;;;4969394;28;20487;-85
2023/10/06 05:43:39;;;;;;;6.17;3.30;;;13.00;99.90;;;;;;4982837;28;20458;-85
2023/10/06 05:46:43;;;;;;;8.70;4.10;;;12.90;99.90;;;;;;4976500;28;20459;-85
2023/10/06 05:49:53;;;;;;;5.67;3.13;;;13.20;99.90;;;;;;4992659;28;20475;-88
2023/10/06 05:52:51;;;;;;;5.93;3.10;;;13.20;99.90;;;;;;4979511;28;20552;-88
2023/10/06 05:56:03;;;;;;;4.60;3.17;;;13.30;99.90;;;;;;5000589;28;20468;-85
2023/10/06 05:58:46;;;;;;;6.90;3.80;;;13.20;99.90;;;;;;4983504;28;20482;-85
2023/10/06 06:02:04;;;;;;;4.00;3.67;;;13.10;99.90;;;;;;4966935;28;20509;-86
2023/10/06 06:05:00;;;;;;;6.43;3.30;;;13.40;99.90;;;;;;4975393;28;20495;-84
2023/10/06 06:07:36;;;;;;;4.20;2.87;;;13.60;99.90;;;;;;4965390;28;20500;-85
2023/10/06 06:10:13;;;;;;;4.33;3.17;;;13.50;99.90;;;;;;4957746;28;20494;-84
2023/10/06 06:13:05;;;;;;;4.67;2.93;;;13.40;99.90;;;;;;4963196;28;20561;-85
2023/10/06 06:15:44;;;;;;;6.70;3.40;;;13.60;99.90;;;;;;4973077;28;20588;-85
2023/10/06 06:18:27;;;;;;;5.50;3.53;;;13.60;99.90;;;;;;4959789;28;20853;-85
2023/10/06 06:21:27;;;;;;;6.40;3.30;;;13.40;99.90;;;;;;4960268;28;20570;-85
2023/10/06 06:24:08;;;;;;;8.23;3.80;;;13.70;99.90;;;;;;4974534;28;20467;-86
2023/10/06 06:27:00;;;;;;;;;;;;;;;;;;;;;
2023/10/06 06:29:50;;;;;;;5.63;3.47;;;13.80;99.90;;;;;;4971491;28;20459;-85
2023/10/06 06:32:50;;;;;;;3.53;3.23;;;13.80;99.90;;;;;;4952174;28;21502;-84
2023/10/06 06:35:38;;;;;;;5.77;3.97;;;13.70;99.90;;;;;;4959805;28;20462;-84
2023/10/06 06:38:18;;;;;;;4.17;2.80;;;13.70;99.90;;;;;;4956142;28;20483;-87
2023/10/06 06:40:54;;;;;;;4.20;3.80;;;13.70;99.90;;;;;;4962159;28;21013;-83
2023/10/06 06:43:36;;;;;;;5.00;3.83;;;13.40;99.90;;;;;;4956845;28;20938;-84
2023/10/06 06:46:21;;;;;;;8.30;4.03;;;13.40;99.90;;;;;;4960486;28;20518;-84
2023/10/06 06:49:29;;;;;;;8.57;4.03;;;13.40;99.90;;;;;;4959901;28;20490;-84
2023/10/06 06:52:13;;;;;;;4.43;3.50;;;13.50;99.90;;;;;;4964056;28;20468;-85
2023/10/06 06:55:19;;;;;;;7.60;3.90;;;13.60;99.90;;;;;;4984298;28;20474;-85
2023/10/06 07:01:29;;;;;;;6.23;3.87;;;13.90;99.90;;;;;;4988080;28;20510;-86
2023/10/06 07:04:18;;;;;;;4.17;3.37;;;14.00;99.90;;;;;;4983529;28;20490;-85
2023/10/06 07:07:20;;;;;;;5.10;3.60;;;14.80;99.90;;;;;;4978124;28;20464;-85
2023/10/06 07:10:20;;;;;;;4.93;3.27;;;17.00;99.90;;;;;;4965988;28;20472;-87
2023/10/06 07:13:24;;;;;;;5.07;3.53;;;19.00;95.70;;;;;;4953500;28;20431;-85
2023/10/06 07:16:52;;;;;;;4.03;3.53;;;20.70;92.10;;;;;;4971616;28;21053;-88
2023/10/06 07:20:35;;;;;;;7.43;3.60;;;21.20;88.70;;;;;;4974581;28;20475;-85
2023/10/06 07:26:44;;;;;;;5.20;3.43;;;21.30;84.80;;;;;;4986237;28;20462;-86
2023/10/06 07:29:34;;;;;;;8.73;3.50;;;21.50;84.50;;;;;;4991721;28;20475;-85
2023/10/06 07:32:28;;;;;;;4.00;2.80;;;21.40;82.90;;;;;;4972272;28;20491;-84
2023/10/06 07:41:27;;;;;;;3.80;3.30;;;19.80;86.40;;;;;;4977252;28;20858;-86
2023/10/06 07:44:49;;;;;;;7.23;5.10;;;18.30;91.00;;;;;;4976117;28;20455;-86
2023/10/06 07:47:46;;;;;;;4.80;3.90;;;17.50;93.20;;;;;;4989258;28;20549;-85
2023/10/06 07:53:40;;;;;;;4.10;3.53;;;16.70;96.20;;;;;;4984036;28;20439;-84
2023/10/06 07:56:27;;;;;;;10.13;3.80;;;16.40;96.90;;;;;;4971656;28;20490;-85
2023/10/06 08:00:42;;;;;;;4.80;4.20;;;16.30;97.60;;;;;;4970779;28;20550;-85
2023/10/06 08:03:37;;;;;;;5.23;3.83;;;16.00;98.30;;;;;;4935140;28;21914;-84
2023/10/06 08:06:27;;;;;;;6.57;3.90;;;16.00;98.90;;;;;;4973137;28;20451;-86
2023/10/06 08:12:56;;;;;;;6.67;3.70;;;16.20;99.00;;;;;;4974036;28;20555;-87
2023/10/06 08:16:12;;;;;;;4.70;3.80;;;16.30;98.80;;;;;;4982394;28;20436;-87
2023/10/06 08:19:05;;;;;;;5.33;3.73;;;16.50;98.40;;;;;;4971318;28;20481;-85
2023/10/06 08:22:03;;;;;;;3.90;3.30;;;16.60;98.30;;;;;;4968022;28;20573;-85
2023/10/06 08:24:43;;;;;;;7.57;3.73;;;16.70;98.40;;;;;;4982871;28;20470;-85
2023/10/06 08:27:51;;;;;;;4.17;3.43;;;16.50;98.50;;;;;;4980172;28;21029;-85
2023/10/06 08:31:03;;;;;;;4.70;3.57;;;16.50;98.50;;;;;;4969986;28;20463;-85
2023/10/06 08:33:41;;;;;;;5.07;3.57;;;16.50;98.50;;;;;;4965874;28;20460;-85
2023/10/06 08:36:52;;;;;;;6.50;3.83;;;16.50;98.60;;;;;;4974768;28;20465;-86
2023/10/06 08:39:44;;;;;;;6.23;3.93;;;16.50;98.70;;;;;;4973505;28;20463;-85
2023/10/06 08:42:24;;;;;;;5.93;3.87;;;16.80;98.80;;;;;;4965230;28;20498;-87
2023/10/06 08:45:03;;;;;;;5.90;3.77;;;16.70;98.60;;;;;;4957016;28;20518;-86
2023/10/06 08:48:09;;;;;;;5.30;3.77;;;16.70;99.10;;;;;;4964578;28;20483;-87
2023/10/06 08:50:57;;;;;;;5.53;3.70;;;16.70;98.90;;;;;;4956681;28;20531;-87
2023/10/06 08:53:55;;;;;;;4.67;3.10;;;16.80;98.70;;;;;;4976883;28;20471;-86
2023/10/06 08:56:34;;;;;;;4.97;3.50;;;16.90;98.50;;;;;;4974286;28;20462;-87
2023/10/06 08:59:31;;;;;;;3.57;2.53;;;17.10;98.40;;;;;;4963613;28;20446;-86
2023/10/06 09:02:16;;;;;;;4.20;3.83;;;17.00;98.40;;;;;;4976817;28;20519;-85
2023/10/06 09:04:52;;;;;;;2.80;2.60;;;17.00;98.50;;;;;;4969980;28;21188;-87
2023/10/06 09:07:33;;;;;;;5.57;3.53;;;17.00;98.40;;;;;;4958983;28;20478;-85
2023/10/06 09:10:26;;;;;;;4.00;2.63;;;16.80;98.60;;;;;;4958630;28;20459;-86
2023/10/06 09:13:11;;;;;;;7.10;3.40;;;17.00;98.40;;;;;;4959393;28;20525;-87
2023/10/06 09:15:43;;;;;;;4.70;3.20;;;17.00;98.50;;;;;;4962535;28;20486;-86
2023/10/06 09:18:18;;;;;;;4.93;3.03;;;17.10;98.50;;;;;;4959162;28;20966;-88
2023/10/06 09:20:49;;;;;;;5.00;2.83;;;17.30;98.00;;;;;;4964712;28;20478;-87
2023/10/06 09:23:34;;;;;;;5.60;3.37;;;17.40;97.90;;;;;;4958149;28;20963;-85
2023/10/06 09:26:04;;;;;;;6.20;3.20;;;17.40;97.80;;;;;;4975849;28;20444;-85
2023/10/06 09:28:35;;;;;;;5.40;3.37;;;17.40;97.80;;;;;;4982252;28;20529;-82
2023/10/06 09:31:05;;;;;;;4.60;2.37;;;17.40;97.60;;;;;;4957048;28;20961;-85
2023/10/06 09:33:38;;;;;;;3.30;2.77;;;17.60;97.60;;;;;;4965281;28;20464;-84
2023/10/06 09:36:07;;;;;;;6.53;2.73;;;17.90;97.20;;;;;;4964480;28;20462;-85
2023/10/06 09:38:40;;;;;;;3.27;2.40;;;19.10;95.60;;;;;;4975278;28;20490;-86
2023/10/06 09:41:11;;;;;;;2.70;2.23;;;20.20;92.40;;;;;;4956966;28;20483;-86
2023/10/06 09:43:40;;;;;;;5.50;2.37;;;21.50;88.80;;;;;;4974879;28;20447;-85
2023/10/06 09:46:16;;;;;;;3.90;2.23;;;22.90;82.50;;;;;;4959646;28;20461;-85
2023/10/06 09:48:44;;;;;;;3.10;1.93;;;23.70;75.60;;;;;;4964693;28;20498;-86
2023/10/06 09:51:12;;;;;;;5.50;3.00;;;24.00;74.20;;;;;;4956835;28;20751;-86
2023/10/06 09:53:44;;;;;;;4.63;2.33;;;24.00;71.40;;;;;;4958392;28;20462;-83
2023/10/06 09:57:18;;;;;;;4.20;2.50;;;23.80;72.50;;;;;;4954878;28;20455;-87
2023/10/06 10:00:19;;;;;;;2.37;2.00;;;24.50;71.30;;;;;;4962224;28;21714;-84
2023/10/06 10:02:50;;;;;;;3.47;2.30;;;25.70;65.20;;;;;;4985364;28;20459;-84
2023/10/06 10:05:43;;;;;;;4.07;2.13;;;25.80;62.10;;;;;;4898429;29;20525;-84
2023/10/06 10:08:46;;;;;;;4.80;2.50;;;24.50;63.30;;;;;;4909584;28;20482;-86
2023/10/06 10:11:47;;;;;;;4.63;2.13;;;23.40;65.70;;;;;;4952028;28;20483;-87
2023/10/06 10:14:49;;;;;;;3.60;2.63;;;22.40;70.50;;;;;;4954994;28;20459;-84
2023/10/06 10:18:04;;;;;;;4.40;2.20;;;22.40;70.90;;;;;;4962488;28;20479;-85
2023/10/06 10:20:51;;;;;;;5.90;2.53;;;21.90;73.30;;;;;;4959025;28;20523;-84
2023/10/06 10:23:48;;;;;;;2.30;2.10;;;21.80;72.90;;;;;;4985056;28;20471;-84
2023/10/06 10:26:47;;;;;;;2.33;1.90;;;21.70;72.60;;;;;;4964596;28;20470;-84
2023/10/06 10:29:24;;;;;;;3.63;2.10;;;21.60;74.20;;;;;;4977278;28;20907;-85
2023/10/06 10:32:29;;;;;;;4.33;2.30;;;21.40;75.80;;;;;;4980406;28;20471;-84
2023/10/06 10:35:35;;;;;;;3.67;2.40;;;20.70;75.50;;;;;;4961678;28;20468;-85
2023/10/06 10:38:07;;;;;;;3.40;2.10;;;20.60;75.90;;;;;;4966742;28;20475;-84
2023/10/06 10:40:51;;;;;;;3.63;2.13;;;20.90;75.40;;;;;;4959304;28;20499;-84
2023/10/06 10:43:29;;;;;;;5.10;2.60;;;20.70;76.00;;;;;;4957988;28;20471;-83
2023/10/06 10:46:12;;;;;;;4.10;1.97;;;20.50;76.70;;;;;;4986057;28;20460;-81
2023/10/06 10:48:49;;;;;;;3.73;2.60;;;20.80;76.60;;;;;;4970180;28;20480;-84
2023/10/06 10:51:46;;;;;;;3.20;2.30;;;21.20;75.70;;;;;;4972082;28;20490;-83
2023/10/06 10:54:39;;;;;;;3.10;2.20;;;20.90;75.90;;;;;;4987735;28;20440;-87
2023/10/06 10:57:25;;;;;;;2.97;2.17;;;21.00;76.30;;;;;;4973734;28;20471;-84
2023/10/06 11:02:53;;;;;;;3.47;2.50;;;20.80;76.10;;;;;;4987700;28;20472;-85
2023/10/06 11:05:37;;;;;;;;;;;;;;;;;;;;;
2023/10/06 11:08:38;;;;;;;4.30;1.90;;;21.20;74.80;;;;;;5030618;23;20494;-84
2023/10/06 11:11:30;;;;;;;5.63;2.23;;;21.20;74.50;;;;;;4967812;28;20479;-87
2023/10/06 11:14:17;;;;;;;2.97;2.40;;;20.80;75.80;;;;;;4992984;28;20455;-87
2023/10/06 11:16:49;;;;;;;2.27;2.00;;;21.20;75.60;;;;;;4974285;28;20440;-85
2023/10/06 11:19:21;;;;;;;4.03;2.40;;;21.50;75.40;;;;;;4973205;28;20474;-85
2023/10/06 11:22:27;;;;;;;3.37;2.53;;;21.10;75.10;;;;;;4971153;28;20444;-84
2023/10/06 11:25:06;;;;;;;6.50;2.70;;;20.70;75.80;;;;;;4968190;28;20475;-85
2023/10/06 11:31:25;;;;;;;3.93;2.10;;;21.40;73.30;;;;;;4973498;28;20511;-84
2023/10/06 11:34:15;;;;;;;5.63;2.40;;;21.40;73.80;;;;;;4985950;28;20519;-84
2023/10/06 11:37:23;;;;;;;;;;;;;;;;;;;;;
2023/10/06 11:39:58;;;;;;;3.77;2.50;;;21.30;73.50;;;;;;4978079;28;20486;-84
2023/10/06 11:43:22;;;;;;;;;;;;;;;;;;;;;
2023/10/06 11:46:38;;;;;;;;;;;;;;;;;;;;;
2023/10/06 11:49:58;;;;;;;4.13;2.00;;;21.00;76.00;;;;;;4977596;28;20503;-84
2023/10/06 11:56:57;;;;;;;3.03;2.30;;;21.30;75.60;;;;;;4971250;28;20453;-85
2023/10/06 12:00:22;;;;;;;;;;;;;;;;;;;;;
2023/10/06 12:03:51;;;;;;;4.23;2.00;;;21.20;76.10;;;;;;4970350;28;20452;-84
2023/10/06 12:07:23;;;;;;;3.77;2.23;;;21.40;74.90;;;;;;4953878;28;20452;-86
2023/10/06 12:17:27;;;;;;;4.30;2.20;;;22.10;70.80;;;;;;4832641;29;20553;-85
2023/10/06 12:20:27;;;;;;;5.27;2.30;;;22.60;69.10;;;;;;4839703;29;20462;-84
2023/10/06 12:23:15;;;;;;;4.20;2.10;;;22.90;67.60;;;;;;4888186;29;20564;-86
2023/10/06 12:26:29;;;;;;;2.33;2.00;;;24.60;64.00;;;;;;4890524;29;20520;-87
2023/10/06 12:29:18;;;;;;;2.60;1.50;;;23.70;62.00;;;;;;4885706;29;20488;-88
2023/10/06 12:32:31;;;;;;;3.23;1.90;;;23.60;62.20;;;;;;4881778;29;20488;-85
2023/10/06 12:35:39;;;;;;;6.90;2.30;;;23.70;61.50;;;;;;4850870;29;20482;-88
2023/10/06 12:39:05;;;;;;;4.47;2.23;;;23.70;61.00;;;;;;4869202;29;20676;-86
2023/10/06 12:46:08;;;;;;;;;;;;;;;;;;;;;
2023/10/06 12:52:49;;;;;;;4.47;2.57;;;24.60;59.50;;;;;;4802099;29;20499;-86
2023/10/06 12:56:04;;;;;;;1.97;1.77;;;25.20;59.40;;;;;;4801618;29;20490;-84
2023/10/06 12:59:15;;;;;;;2.53;1.93;;;25.70;57.90;;;;;;4835281;29;20505;-85
2023/10/06 13:06:35;;;;;;;4.83;1.90;;;26.20;56.30;;;;;;4788032;29;20561;-85
2023/10/06 13:09:39;;;;;;;;;;;;;;;;;;;;;
2023/10/06 13:12:46;;;;;;;4.10;2.73;;;24.90;57.90;;;;;;4800591;29;20545;-85
2023/10/06 13:16:04;;;;;;;;;;;;;;;;;;;;;
2023/10/06 13:23:04;;;;;;;;;;;;;;;;;;;;;
2023/10/06 13:25:46;;;;;;;3.80;1.73;;;24.90;57.00;;;;;;4948275;28;20544;-84
2023/10/06 13:29:13;;;;;;;3.67;2.10;;;24.60;56.60;;;;;;4951152;28;20530;-86
2023/10/06 13:32:35;;;;;;;3.47;2.17;;;24.60;57.40;;;;;;4891816;28;20476;-88
2023/10/06 13:35:57;;;;;;;3.60;1.83;;;24.60;57.30;;;;;;4957183;28;20854;-86
2023/10/06 13:38:54;;;;;;;2.93;1.90;;;25.20;56.80;;;;;;4949736;28;20487;-86
2023/10/06 13:42:13;;;;;;;4.20;2.30;;;24.90;56.90;;;;;;4946649;28;20471;-87
2023/10/06 13:45:35;;;;;;;3.63;2.30;;;24.80;57.60;;;;;;4889168;29;20623;-86
2023/10/06 13:52:10;;;;;;;;;;;;;;;;;;;;;
2023/10/06 13:55:21;;;;;;;3.40;2.03;;;24.30;57.20;;;;;;4871326;29;20455;-87
2023/10/06 13:58:11;;;;;;;;;;;;;;;;;;;;;
2023/10/06 14:04:54;;;;;;;4.17;2.13;;;23.80;57.60;;;;;;4916031;29;20495;-86
2023/10/06 14:11:42;;;;;;;2.73;2.13;;;23.20;58.40;;;;;;4911553;29;20563;-85
2023/10/06 14:14:59;;;;;;;2.23;2.00;;;23.00;58.80;;;;;;4892393;29;20558;-86
2023/10/06 14:18:29;;;;;;;2.97;2.10;;;22.80;59.20;;;;;;4899811;29;20474;-84
2023/10/06 14:21:41;;;;;;;2.53;1.83;;;22.60;59.30;;;;;;4899524;28;21030;-85
2023/10/06 14:25:02;;;;;;;4.53;2.30;;;22.50;58.00;;;;;;4953241;28;20455;-84
2023/10/06 14:28:37;;;;;;;3.57;2.50;;;22.40;57.80;;;;;;4977467;28;20476;-85
2023/10/06 14:35:45;;;;;;;4.10;2.40;;;22.30;58.40;;;;;;4923618;29;20457;-85
2023/10/06 14:48:43;;;;;;;;;;;;;;;;;;;;;
2023/10/06 14:51:26;;;;;;;3.83;2.47;;;22.20;61.50;;;;;;4933340;29;20482;-85
2023/10/06 14:55:13;;;;;;;3.90;2.57;;;22.20;62.20;;;;;;4917713;29;20582;-85
2023/10/06 14:58:31;;;;;;;5.03;2.70;;;22.10;62.40;;;;;;4859817;29;20512;-84
2023/10/06 15:01:16;;;;;;;;;;;;;;;;;;;;;
2023/10/06 15:04:04;;;;;;;3.40;2.13;;;21.90;63.90;;;;;;4821067;29;20467;-83
2023/10/06 15:07:08;;;;;;;4.03;2.40;;;22.00;63.50;;;;;;4852850;29;20499;-86
2023/10/06 15:10:22;;;;;;;5.20;2.53;;;21.90;63.70;;;;;;4906537;29;20494;-88
2023/10/06 15:13:39;;;;;;;;;;;;;;;;;;;;;
2023/10/06 15:16:30;;;;;;;;;;;;;;;;;;;;;
2023/10/06 15:19:35;;;;;;;;;;;;;;;;;;;;;
2023/10/06 15:22:50;;;;;;;4.87;3.10;;;22.50;62.10;;;;;;4913155;29;20494;-85
2023/10/06 15:25:45;;;;;;;3.37;2.20;;;22.80;61.40;;;;;;4892588;29;20530;-84
2023/10/06 15:29:07;;;;;;;6.13;2.37;;;22.90;61.50;;;;;;4895716;29;20487;-85
2023/10/06 15:31:52;;;;;;;3.53;2.23;;;22.40;62.30;;;;;;4885933;29;20482;-83
2023/10/06 15:34:58;;;;;;;3.13;1.97;;;22.20;63.70;;;;;;4914338;28;21083;-87
2023/10/06 15:38:19;;;;;;;3.00;1.93;;;22.00;64.50;;;;;;4953578;28;20487;-87
2023/10/06 15:41:23;;;;;;;3.33;2.57;;;22.10;64.20;;;;;;4917029;28;20452;-84
2023/10/06 15:44:49;;;;;;;4.80;2.77;;;21.80;65.40;;;;;;4955973;28;20460;-87
2023/10/06 15:47:57;;;;;;;5.57;2.47;;;21.90;65.50;;;;;;4951633;28;20518;-87
2023/10/06 15:51:23;;;;;;;4.60;2.63;;;22.40;64.90;;;;;;4967627;28;20523;-88
2023/10/06 15:54:52;;;;;;;;;;;;;;;;;;;;;
2023/10/06 16:01:25;;;;;;;4.57;2.70;;;22.10;68.50;;;;;;4965993;28;20471;-87
2023/10/06 16:04:19;;;;;;;4.60;2.47;;;22.00;69.30;;;;;;4945200;28;20456;-87
2023/10/06 16:07:17;;;;;;;6.03;2.70;;;22.20;70.10;;;;;;4974757;28;20455;-84
2023/10/06 16:13:31;;;;;;;4.20;2.17;;;21.90;70.70;;;;;;4977130;28;20443;-86
2023/10/06 16:20:28;;;;;;;5.53;3.60;;;22.00;70.70;;;;;;4931781;29;20446;-87
2023/10/06 16:23:24;;;;;;;3.17;2.70;;;21.90;70.90;;;;;;4941916;28;20455;-86
2023/10/06 16:26:55;;;;;;;4.93;2.20;;;21.60;72.10;;;;;;4919573;29;20516;-85
2023/10/06 16:29:42;;;;;;;4.20;2.57;;;21.50;73.10;;;;;;4912783;29;20466;-85
2023/10/06 16:32:42;;;;;;;6.43;3.53;;;21.40;74.00;;;;;;4914270;29;20469;-83
2023/10/06 16:36:24;;;;;;;4.57;3.30;;;21.30;74.80;;;;;;4950465;28;20456;-85
2023/10/06 16:39:35;;;;;;;4.77;2.80;;;21.10;75.80;;;;;;4893226;29;20589;-83
2023/10/06 16:42:38;;;;;;;3.43;2.63;;;21.00;76.30;;;;;;4903337;29;20427;-85
2023/10/06 16:45:26;;;;;;;6.20;3.23;;;21.00;77.30;;;;;;4890634;29;20467;-85
2023/10/06 16:48:21;;;;;;;6.57;4.27;;;21.00;77.80;;;;;;4878956;29;22720;-87
2023/10/06 16:51:39;;;;;;;3.93;2.93;;;20.90;78.30;;;;;;4871573;29;20478;-86
2023/10/06 16:54:35;;;;;;;5.97;3.33;;;20.80;78.50;;;;;;4874159;29;20464;-87
2023/10/06 17:00:26;;;;;;;3.07;2.80;;;20.70;79.20;;;;;;5026033;23;20491;-86
2023/10/06 17:03:46;;;;;;;4.67;3.43;;;20.60;79.50;;;;;;4962837;28;20879;-86
2023/10/06 17:18:57;;;;;;;4.87;3.33;;;20.50;81.50;;;;;;4741547;30;20471;-87
2023/10/06 17:22:28;;;;;;;;;;;;;;;;;;;;;
2023/10/06 17:29:37;;;;;;;7.93;4.43;;;20.30;82.50;;;;;;4810942;29;21135;-86
2023/10/06 17:35:58;;;;;;;4.97;3.10;;;20.20;83.20;;;;;;4799600;29;20946;-86
2023/10/06 17:42:10;;;;;;;3.80;3.40;;;20.20;83.60;;;;;;5091235;23;20499;-85
2023/10/06 17:45:03;;;;;;;6.63;3.40;;;20.10;83.80;;;;;;4970507;28;20488;-86
2023/10/06 17:48:01;;;;;;;6.33;3.83;;;20.10;84.30;;;;;;4871751;29;20451;-86
2023/10/06 17:51:16;;;;;;;5.20;3.80;;;20.10;84.70;;;;;;4904843;29;20454;-86
2023/10/06 17:54:31;;;;;;;6.27;3.43;;;20.10;85.10;;;;;;4907142;29;20526;-86
2023/10/06 18:01:07;;;;;;;6.97;3.30;;;20.00;85.30;;;;;;4899483;29;20446;-86
2023/10/06 18:04:21;;;;;;;4.57;3.27;;;19.90;85.50;;;;;;4915178;29;20444;-85
2023/10/06 18:07:20;;;;;;;6.63;3.53;;;19.90;86.10;;;;;;4859133;29;20464;-86
2023/10/06 18:10:47;;;;;;;5.03;2.70;;;19.90;86.40;;;;;;4888815;29;20451;-84
2023/10/06 18:13:30;;;;;;;4.70;3.60;;;19.80;86.20;;;;;;4874143;29;20512;-85
2023/10/06 18:16:35;;;;;;;;;;;;;;;;;;;;;
2023/10/06 18:19:42;;;;;;;3.63;2.90;;;19.50;86.30;;;;;;5006688;23;21204;-84
2023/10/06 18:22:55;;;;;;;5.70;2.97;;;19.90;86.60;;;;;;4959009;28;20453;-85
2023/10/06 18:26:12;;;;;;;4.40;2.67;;;19.70;86.30;;;;;;4985635;28;21296;-86
2023/10/06 18:29:02;;;;;;;4.23;2.97;;;19.70;86.60;;;;;;4944447;28;20463;-85
2023/10/06 18:32:22;;;;;;;;;;;;;;;;;;;;;
2023/10/06 18:35:15;;;;;;;3.63;2.43;;;19.70;86.30;;;;;;4973498;28;22607;-87
2023/10/06 18:38:27;;;;;;;3.60;2.67;;;19.70;86.10;;;;;;4959058;28;20467;-84
2023/10/06 18:41:30;;;;;;;4.73;2.87;;;19.80;86.50;;;;;;4950063;28;20446;-85